Time;durP1;ratioP1;P1;durP2;ratioP2;P2;SDS_P1;SDS_P2;PMS_P1;PMS_P2;Temp;Humidity;BMP_temperature;BMP_pressure;BME280_temperature;BME280_humidity;BME280_pressure;Samples;Min_cycle;Max_cycle;Signal;HPM_P1;HPM_P2
2022/03/12 00:00:51;;;;;;;5.40;4.20;;;16.60;35.30;17.60;100686.00;;;;5079004;28;20198;-47
2022/03/12 00:03:17;;;;;;;5.80;4.23;;;16.60;35.20;17.60;100617.00;;;;5079652;28;20169;-47
2022/03/12 00:05:48;;;;;;;4.50;4.10;;;16.60;35.30;17.60;100652.00;;;;5079628;28;20263;-47
2022/03/12 00:08:14;;;;;;;4.43;4.00;;;16.50;35.40;17.60;100731.00;;;;5079793;28;20227;-48
2022/03/12 00:10:43;;;;;;;4.70;3.90;;;16.50;35.40;17.60;100741.00;;;;5079615;28;20174;-48
2022/03/12 00:13:08;;;;;;;4.20;3.80;;;16.50;35.50;17.50;100666.00;;;;5078140;28;20227;-48
2022/03/12 00:15:38;;;;;;;3.90;3.50;;;16.60;35.50;17.50;100740.00;;;;5079815;28;20197;-47
2022/03/12 00:18:04;;;;;;;3.97;3.40;;;16.60;35.70;17.50;100729.00;;;;5061809;28;20187;-48
2022/03/12 00:20:29;;;;;;;4.33;3.80;;;16.50;35.80;17.50;100663.00;;;;5078438;28;20583;-48
2022/03/12 00:22:56;;;;;;;4.00;3.70;;;16.50;36.80;17.50;100681.00;;;;5076497;28;20174;-47
2022/03/12 00:25:22;;;;;;;4.10;3.70;;;16.50;36.30;17.40;100686.00;;;;5076409;28;20217;-47
2022/03/12 00:27:50;;;;;;;4.20;3.77;;;16.50;36.40;17.50;100732.00;;;;5076860;28;20173;-47
2022/03/12 00:30:22;;;;;;;4.13;3.77;;;16.50;36.40;17.40;100732.00;;;;5074986;28;20196;-46
2022/03/12 00:32:49;;;;;;;3.80;3.50;;;16.60;36.70;17.40;100728.00;;;;5077286;28;20154;-48
2022/03/12 00:35:17;;;;;;;4.47;3.60;;;16.50;36.80;17.40;100737.00;;;;5076838;28;20197;-48
2022/03/12 00:37:43;;;;;;;4.03;3.73;;;16.50;36.80;17.30;100731.00;;;;5074507;28;20197;-46
2022/03/12 00:40:09;;;;;;;4.00;3.40;;;16.40;36.80;17.30;100729.00;;;;5078638;28;20172;-47
2022/03/12 00:42:35;;;;;;;4.47;3.70;;;16.40;36.90;17.40;100731.00;;;;5077197;28;20181;-47
2022/03/12 00:45:01;;;;;;;3.60;3.30;;;16.50;37.80;17.40;100739.00;;;;5077138;28;20189;-47
2022/03/12 00:47:27;;;;;;;4.00;3.60;;;16.50;37.10;17.40;100724.00;;;;5076093;28;20537;-49
2022/03/12 00:49:54;;;;;;;4.60;3.30;;;16.40;37.10;17.40;100736.00;;;;5076175;28;20191;-47
2022/03/12 00:52:20;;;;;;;3.73;3.40;;;16.40;37.30;17.40;100738.00;;;;5076684;28;20174;-47
2022/03/12 00:54:45;;;;;;;3.57;3.27;;;16.40;37.30;17.40;100736.00;;;;5076515;28;20201;-50
2022/03/12 00:57:12;;;;;;;3.73;3.40;;;16.40;37.40;17.30;100739.00;;;;5078671;28;20174;-47
2022/03/12 00:59:41;;;;;;;3.83;3.40;;;16.40;37.50;17.30;100738.00;;;;5075537;28;20260;-47
2022/03/12 01:02:11;;;;;;;4.67;3.30;;;16.40;37.60;17.30;100745.00;;;;5074744;28;20224;-48
2022/03/12 01:04:37;;;;;;;3.53;3.23;;;16.30;37.60;17.20;100742.00;;;;5076882;28;20181;-47
2022/03/12 01:07:03;;;;;;;3.43;3.13;;;16.30;37.70;17.20;100748.00;;;;5075234;28;20173;-47
2022/03/12 01:09:29;;;;;;;3.23;3.03;;;16.30;37.80;17.10;100739.00;;;;5080141;28;20165;-47
2022/03/12 01:11:55;;;;;;;3.47;3.17;;;16.20;37.90;17.10;100742.00;;;;5076653;28;20262;-47
2022/03/12 01:14:21;;;;;;;3.70;3.00;;;16.20;37.90;17.10;100755.00;;;;5074407;28;20215;-47
2022/03/12 01:16:46;;;;;;;3.47;3.17;;;16.20;37.90;17.10;100745.00;;;;5075763;28;20181;-47
2022/03/12 01:19:12;;;;;;;3.47;3.10;;;16.10;38.00;17.10;100744.00;;;;5058291;28;20166;-47
2022/03/12 01:21:38;;;;;;;3.23;2.93;;;16.20;38.10;17.00;100745.00;;;;5075286;28;20567;-45
2022/03/12 01:24:04;;;;;;;3.33;3.03;;;16.10;38.20;17.00;100746.00;;;;5075815;28;20182;-51
2022/03/12 01:26:29;;;;;;;3.40;3.10;;;16.20;38.20;17.10;100751.00;;;;5074812;28;20584;-47
2022/03/12 01:28:55;;;;;;;3.10;2.80;;;16.20;38.20;17.10;100747.00;;;;5075570;28;20173;-47
2022/03/12 01:31:21;;;;;;;3.50;3.20;;;16.20;38.20;17.10;100758.00;;;;5075450;28;20662;-47
2022/03/12 01:33:46;;;;;;;3.10;2.90;;;16.20;38.20;17.10;100746.00;;;;5074347;28;20178;-46
2022/03/12 01:36:13;;;;;;;3.00;2.80;;;16.20;38.30;17.10;100755.00;;;;5075666;28;20270;-48
2022/03/12 01:38:50;;;;;;;3.57;3.27;;;16.20;38.30;17.20;100750.00;;;;5075368;28;20188;-46
2022/03/12 01:41:20;;;;;;;3.60;3.03;;;16.10;38.10;17.10;100761.00;;;;5075043;28;20236;-46
2022/03/12 01:43:46;;;;;;;3.13;2.90;;;16.20;38.80;17.10;100762.00;;;;5073290;28;20181;-47
2022/03/12 01:46:12;;;;;;;3.07;2.87;;;16.20;38.30;17.10;100762.00;;;;5075455;28;20408;-45
2022/03/12 01:48:46;;;;;;;3.27;2.97;;;16.10;38.30;17.10;100758.00;;;;5075234;28;20178;-46
2022/03/12 01:51:13;;;;;;;3.50;3.20;;;16.10;38.30;17.10;100766.00;;;;5075344;28;20158;-47
2022/03/12 01:53:38;;;;;;;3.33;3.03;;;16.10;38.20;17.10;100761.00;;;;5074806;28;20205;-46
2022/03/12 01:56:04;;;;;;;3.20;2.90;;;16.10;38.40;17.10;100756.00;;;;5075368;28;20201;-47
2022/03/12 01:58:30;;;;;;;3.83;3.10;;;16.10;38.30;17.10;100765.00;;;;5074711;28;20185;-46
2022/03/12 02:00:58;;;;;;;3.33;2.93;;;16.10;38.30;17.20;100768.00;;;;5076109;28;20704;-47
2022/03/12 02:03:26;;;;;;;3.30;3.00;;;16.10;38.30;17.20;100759.00;;;;5078293;28;20204;-47
2022/03/12 02:05:53;;;;;;;3.40;3.10;;;16.10;38.30;17.20;100771.00;;;;5077244;28;20217;-46
2022/03/12 02:08:18;;;;;;;3.43;3.13;;;16.10;38.40;17.20;100772.00;;;;5076972;28;20166;-47
2022/03/12 02:10:45;;;;;;;3.37;3.07;;;16.10;38.50;17.10;100774.00;;;;5077906;28;20256;-47
2022/03/12 02:13:11;;;;;;;2.97;2.70;;;16.10;38.40;17.10;100766.00;;;;5082716;28;20201;-47
2022/03/12 02:15:37;;;;;;;3.10;2.90;;;16.10;38.40;17.10;100768.00;;;;5080932;28;20197;-46
2022/03/12 02:18:03;;;;;;;3.50;3.20;;;16.00;38.40;17.10;100769.00;;;;5078906;28;20173;-47
2022/03/12 02:20:29;;;;;;;3.10;2.90;;;16.10;38.50;17.10;100776.00;;;;5078679;28;20178;-47
2022/03/12 02:22:54;;;;;;;3.10;2.80;;;16.10;38.50;17.10;100775.00;;;;5078168;28;20186;-47
2022/03/12 02:25:31;;;;;;;3.30;3.00;;;16.00;38.50;17.10;100768.00;;;;5083310;28;20193;-48
2022/03/12 02:27:57;;;;;;;3.00;2.80;;;16.00;38.60;17.10;100775.00;;;;5084047;28;20169;-46
2022/03/12 02:30:42;;;;;;;3.30;3.00;;;16.00;38.70;17.10;100786.00;;;;5080708;28;20185;-48
2022/03/12 02:33:08;;;;;;;3.30;3.00;;;16.00;38.60;17.10;100779.00;;;;5079585;28;20166;-48
2022/03/12 02:35:35;;;;;;;3.67;2.97;;;16.00;38.70;17.10;100777.00;;;;5078891;28;20217;-49
2022/03/12 02:38:05;;;;;;;3.10;2.90;;;16.00;38.70;17.10;100787.00;;;;5081972;28;20257;-48
2022/03/12 02:40:32;;;;;;;3.07;2.87;;;15.90;38.70;17.10;100752.00;;;;5078887;28;20184;-47
2022/03/12 02:42:58;;;;;;;3.10;2.83;;;15.90;38.60;17.10;100789.00;;;;5078105;28;20169;-47
2022/03/12 02:45:26;;;;;;;2.90;2.70;;;16.00;38.70;17.10;100793.00;;;;5076880;28;20208;-47
2022/03/12 02:47:52;;;;;;;3.30;3.00;;;16.00;38.80;17.00;100803.00;;;;5078331;28;20181;-46
2022/03/12 02:50:18;;;;;;;3.30;3.00;;;15.90;38.60;17.00;100794.00;;;;5077669;28;20197;-46
2022/03/12 02:52:44;;;;;;;3.03;2.83;;;15.90;38.70;17.00;100806.00;;;;5077732;28;20170;-48
2022/03/12 02:55:13;;;;;;;3.20;2.90;;;15.90;38.70;17.00;100799.00;;;;5080316;28;20200;-46
2022/03/12 02:57:44;;;;;;;3.33;3.07;;;15.90;38.70;17.00;100804.00;;;;5076483;28;20178;-46
2022/03/12 03:00:10;;;;;;;3.40;3.10;;;15.90;38.70;17.00;100811.00;;;;5078368;28;20170;-47
2022/03/12 03:02:40;;;;;;;2.97;2.77;;;15.90;38.70;17.00;100816.00;;;;5078081;28;20230;-46
2022/03/12 03:05:38;;;;;;;3.30;3.00;;;15.90;38.80;17.00;100711.00;;;;5077858;28;20197;-46
2022/03/12 03:08:09;;;;;;;3.87;3.00;;;15.80;38.80;17.00;100822.00;;;;5077734;28;20158;-48
2022/03/12 03:10:42;;;;;;;3.10;2.80;;;15.90;39.00;17.00;100811.00;;;;5077970;28;20178;-48
2022/03/12 03:13:16;;;;;;;2.90;2.70;;;15.90;39.10;17.00;100811.00;;;;5077562;28;20150;-48
2022/03/12 03:15:47;;;;;;;3.30;3.00;;;15.90;39.10;17.00;100811.00;;;;5076799;28;20196;-47
2022/03/12 03:18:16;;;;;;;3.20;2.90;;;15.90;39.10;17.00;100818.00;;;;5083182;28;20161;-47
2022/03/12 03:20:42;;;;;;;3.23;2.87;;;15.80;39.00;17.00;100808.00;;;;5078260;28;20198;-47
2022/03/12 03:23:11;;;;;;;3.20;2.90;;;15.90;39.10;17.00;100759.00;;;;5076834;28;20702;-48
2022/03/12 03:25:37;;;;;;;2.97;2.77;;;15.80;39.00;17.00;100823.00;;;;5077070;28;20615;-47
2022/03/12 03:28:03;;;;;;;3.17;2.97;;;15.80;39.00;16.90;100819.00;;;;5059248;28;20166;-47
2022/03/12 03:30:36;;;;;;;3.27;3.00;;;15.80;39.00;16.90;100819.00;;;;5077195;28;20180;-46
2022/03/12 03:33:03;;;;;;;3.30;3.10;;;15.80;39.10;16.90;100822.00;;;;5076859;28;20193;-47
2022/03/12 03:35:29;;;;;;;3.37;3.00;;;15.80;39.10;16.90;100817.00;;;;5075590;28;20193;-46
2022/03/12 03:37:55;;;;;;;3.13;2.93;;;15.80;39.00;16.90;100818.00;;;;5077452;28;20177;-46
2022/03/12 03:40:21;;;;;;;3.30;3.00;;;15.80;39.00;16.90;100821.00;;;;5058841;28;20181;-47
2022/03/12 03:42:47;;;;;;;3.43;3.13;;;15.80;39.00;16.90;100808.00;;;;5077220;28;20169;-47
2022/03/12 03:45:21;;;;;;;3.37;3.07;;;15.70;39.00;16.90;100810.00;;;;5059730;28;20193;-47
2022/03/12 03:47:47;;;;;;;3.33;3.00;;;15.70;39.10;16.90;100800.00;;;;5075542;28;20157;-46
2022/03/12 03:50:13;;;;;;;3.20;2.97;;;15.80;39.10;16.90;100832.00;;;;5076505;28;20169;-47
2022/03/12 03:52:39;;;;;;;3.10;2.90;;;15.70;38.90;16.90;100816.00;;;;5067544;28;20186;-46
2022/03/12 03:55:06;;;;;;;3.03;2.83;;;15.80;39.10;16.80;100822.00;;;;5076664;28;20234;-46
2022/03/12 03:57:31;;;;;;;3.30;3.00;;;15.70;39.00;16.80;100829.00;;;;5077718;28;20177;-46
2022/03/12 03:59:57;;;;;;;3.10;2.90;;;15.70;39.00;16.80;100798.00;;;;5078116;28;20158;-47
2022/03/12 04:02:23;;;;;;;4.77;2.90;;;15.70;39.10;16.80;100834.00;;;;5078822;28;20270;-46
2022/03/12 04:04:49;;;;;;;3.40;3.10;;;15.70;39.10;16.80;100836.00;;;;5077112;28;20189;-48
2022/03/12 04:07:15;;;;;;;2.97;2.77;;;15.70;39.00;16.80;100831.00;;;;5077375;28;20347;-48
2022/03/12 04:09:41;;;;;;;3.10;2.90;;;15.70;39.10;16.80;100851.00;;;;5077310;28;20246;-49
2022/03/12 04:12:07;;;;;;;3.03;2.83;;;15.70;39.20;16.80;100777.00;;;;5076804;28;20194;-45
2022/03/12 04:14:33;;;;;;;3.17;2.90;;;15.70;39.20;16.80;100844.00;;;;5076806;28;20430;-46
2022/03/12 04:16:59;;;;;;;3.40;3.10;;;15.70;39.20;16.70;100844.00;;;;5075595;28;20178;-47
2022/03/12 04:19:29;;;;;;;2.93;2.73;;;15.70;39.10;16.70;100715.00;;;;5076688;28;20191;-46
2022/03/12 04:21:56;;;;;;;3.23;2.97;;;15.60;39.10;16.70;100847.00;;;;5074569;28;20276;-47
2022/03/12 04:24:23;;;;;;;3.13;2.93;;;15.70;39.30;16.70;100849.00;;;;5074992;28;20846;-46
2022/03/12 04:26:50;;;;;;;4.00;3.10;;;15.70;39.20;16.70;100853.00;;;;5075616;28;20165;-47
2022/03/12 04:29:18;;;;;;;4.27;3.10;;;15.60;39.10;16.70;100845.00;;;;5075420;28;20565;-45
2022/03/12 04:31:47;;;;;;;3.37;3.07;;;15.60;40.00;16.70;100855.00;;;;5075740;28;20181;-46
2022/03/12 04:34:13;;;;;;;3.27;2.90;;;15.60;39.40;16.70;100859.00;;;;5076801;28;20558;-46
2022/03/12 04:36:42;;;;;;;3.50;3.20;;;15.60;39.30;16.70;100800.00;;;;5075428;28;20704;-46
2022/03/12 04:39:09;;;;;;;3.27;2.93;;;15.60;39.30;16.70;100785.00;;;;5075720;28;20201;-47
2022/03/12 04:41:36;;;;;;;4.20;3.80;;;15.60;39.50;16.70;100846.00;;;;5077267;28;20292;-47
2022/03/12 04:44:04;;;;;;;5.10;3.70;;;15.60;39.00;16.60;100864.00;;;;5078178;28;20715;-48
2022/03/12 04:46:29;;;;;;;4.40;4.00;;;15.60;38.90;16.60;100861.00;;;;5075982;28;20223;-48
2022/03/12 04:48:55;;;;;;;4.03;3.60;;;15.60;38.80;16.60;100876.00;;;;5077239;28;20177;-48
2022/03/12 04:51:21;;;;;;;6.27;3.70;;;15.60;38.80;16.60;100872.00;;;;5075939;28;20173;-48
2022/03/12 04:53:46;;;;;;;4.00;3.70;;;15.50;38.80;16.50;100870.00;;;;5075373;28;20165;-48
2022/03/12 04:56:12;;;;;;;4.30;3.90;;;15.50;38.60;16.50;100852.00;;;;5076831;28;20189;-47
2022/03/12 04:58:38;;;;;;;4.37;3.97;;;15.50;38.50;16.50;100862.00;;;;5078944;28;20189;-47
2022/03/12 05:01:07;;;;;;;4.63;4.10;;;15.40;38.50;16.40;100859.00;;;;5073045;28;20201;-48
2022/03/12 05:03:34;;;;;;;4.47;3.70;;;15.40;38.60;16.40;100865.00;;;;5075379;28;20818;-47
2022/03/12 05:06:04;;;;;;;4.20;3.80;;;15.40;38.50;16.40;100860.00;;;;5079884;28;20190;-46
2022/03/12 05:08:36;;;;;;;4.77;3.77;;;15.40;38.40;16.40;100829.00;;;;5076829;28;20586;-47
2022/03/12 05:11:02;;;;;;;3.83;3.53;;;15.50;38.70;16.50;100864.00;;;;5075001;28;20182;-47
2022/03/12 05:13:28;;;;;;;4.20;3.40;;;15.50;38.60;16.50;100873.00;;;;5075611;28;20173;-46
2022/03/12 05:16:03;;;;;;;6.00;3.70;;;15.40;38.60;16.50;100864.00;;;;5075462;28;20201;-47
2022/03/12 05:18:30;;;;;;;3.73;3.43;;;15.50;38.80;16.50;100871.00;;;;5074101;28;20162;-47
2022/03/12 05:20:56;;;;;;;5.33;3.70;;;15.40;38.60;16.50;100858.00;;;;5075409;28;20390;-47
2022/03/12 05:23:22;;;;;;;3.83;3.47;;;15.50;38.80;16.50;100859.00;;;;5076339;28;20196;-46
2022/03/12 05:25:48;;;;;;;3.97;3.67;;;15.50;38.80;16.50;100873.00;;;;5074023;28;20201;-47
2022/03/12 05:28:17;;;;;;;3.70;3.40;;;15.40;39.40;16.50;100881.00;;;;5075436;28;20227;-46
2022/03/12 05:30:45;;;;;;;3.63;3.23;;;15.40;38.80;16.50;100884.00;;;;5075756;28;20183;-47
2022/03/12 05:33:14;;;;;;;3.60;3.30;;;15.40;38.80;16.50;100898.00;;;;5076423;28;20185;-47
2022/03/12 05:35:41;;;;;;;3.87;3.47;;;15.40;38.90;16.50;100901.00;;;;5081680;28;20193;-46
2022/03/12 05:38:13;;;;;;;3.60;3.30;;;15.40;38.90;16.50;100890.00;;;;5077131;28;20170;-48
2022/03/12 05:40:40;;;;;;;3.80;3.40;;;15.40;38.90;16.50;100891.00;;;;5066939;28;20269;-48
2022/03/12 05:43:12;;;;;;;3.80;3.50;;;15.40;38.90;16.50;100904.00;;;;5057107;28;20170;-47
2022/03/12 05:45:39;;;;;;;3.60;3.30;;;15.40;39.10;16.50;100896.00;;;;5058586;28;20197;-48
2022/03/12 05:48:08;;;;;;;3.50;3.20;;;15.40;39.10;16.40;100892.00;;;;5057231;28;20643;-48
2022/03/12 05:50:34;;;;;;;3.80;3.50;;;15.40;39.10;16.40;100892.00;;;;5058329;28;20685;-46
2022/03/12 05:53:00;;;;;;;3.70;3.40;;;15.30;39.00;16.40;100900.00;;;;5057458;28;20162;-46
2022/03/12 05:55:26;;;;;;;3.87;3.53;;;15.40;39.10;16.40;100900.00;;;;5058691;28;20201;-47
2022/03/12 05:57:51;;;;;;;3.57;3.27;;;15.30;39.00;16.40;100899.00;;;;5058554;28;20193;-47
2022/03/12 06:00:17;;;;;;;3.30;3.10;;;15.30;39.00;16.40;100904.00;;;;5058575;28;20167;-48
2022/03/12 06:02:51;;;;;;;3.43;3.17;;;15.40;39.10;16.40;100900.00;;;;5058621;28;20285;-46
2022/03/12 06:05:23;;;;;;;3.40;3.10;;;15.30;39.10;16.40;100903.00;;;;5057231;28;20209;-47
2022/03/12 06:07:49;;;;;;;3.40;3.10;;;15.30;39.10;16.40;100900.00;;;;5057188;28;20197;-47
2022/03/12 06:10:18;;;;;;;3.60;3.30;;;15.30;39.10;16.40;100890.00;;;;5057110;28;20253;-46
2022/03/12 06:12:44;;;;;;;3.10;2.90;;;15.30;39.10;16.30;100893.00;;;;5057778;28;20655;-46
2022/03/12 06:15:11;;;;;;;3.40;3.10;;;15.30;39.20;16.30;100899.00;;;;5057901;28;20205;-47
2022/03/12 06:17:38;;;;;;;3.57;3.27;;;15.30;39.20;16.30;100889.00;;;;5058103;28;20252;-48
2022/03/12 06:20:05;;;;;;;3.60;3.30;;;15.30;39.20;16.30;100895.00;;;;5059006;28;20181;-46
2022/03/12 06:22:31;;;;;;;3.40;3.10;;;15.30;39.20;16.30;100898.00;;;;5062315;28;20202;-46
2022/03/12 06:24:56;;;;;;;3.37;3.07;;;15.30;39.30;16.30;100902.00;;;;5060054;28;20241;-45
2022/03/12 06:27:22;;;;;;;3.60;3.30;;;15.30;39.30;16.30;100895.00;;;;5061327;28;20170;-46
2022/03/12 06:29:48;;;;;;;3.43;3.13;;;15.30;39.30;16.30;100887.00;;;;5059281;28;20230;-47
2022/03/12 06:32:14;;;;;;;3.17;2.97;;;15.30;39.30;16.30;100908.00;;;;5061080;28;20188;-47
2022/03/12 06:34:42;;;;;;;3.63;3.33;;;15.20;39.30;16.30;100908.00;;;;5061078;28;20198;-48
2022/03/12 06:37:08;;;;;;;3.93;3.10;;;15.20;39.40;16.30;100903.00;;;;5059986;28;20227;-46
2022/03/12 06:39:34;;;;;;;3.70;3.40;;;15.20;39.30;16.20;100909.00;;;;5058199;28;20218;-46
2022/03/12 06:42:01;;;;;;;3.50;3.20;;;15.20;39.30;16.20;100906.00;;;;5057625;28;20200;-47
2022/03/12 06:44:32;;;;;;;3.40;3.10;;;15.20;39.40;16.20;100910.00;;;;5057638;28;20240;-46
2022/03/12 06:47:01;;;;;;;3.23;2.97;;;15.20;39.40;16.20;100918.00;;;;5058061;28;20151;-47
2022/03/12 06:49:27;;;;;;;3.33;3.03;;;15.20;39.40;16.20;100917.00;;;;5057558;28;20230;-48
2022/03/12 06:51:54;;;;;;;3.57;3.27;;;15.20;39.40;16.20;100921.00;;;;5057455;28;20313;-49
2022/03/12 06:54:19;;;;;;;3.27;3.07;;;15.20;39.40;16.20;100924.00;;;;5056184;28;20222;-45
2022/03/12 06:56:45;;;;;;;3.30;3.10;;;15.20;39.40;16.20;100915.00;;;;5055807;28;20202;-46
2022/03/12 06:59:12;;;;;;;3.60;2.87;;;15.20;39.40;16.20;100913.00;;;;5058129;28;20193;-47
2022/03/12 07:01:38;;;;;;;3.43;3.13;;;15.20;39.50;16.20;100915.00;;;;5057830;28;20297;-47
2022/03/12 07:04:04;;;;;;;3.13;2.93;;;15.20;39.40;16.20;100911.00;;;;5058152;28;20197;-48
2022/03/12 07:06:30;;;;;;;3.30;3.00;;;15.20;39.40;16.20;100915.00;;;;5057822;28;20177;-46
2022/03/12 07:08:55;;;;;;;3.37;3.07;;;15.20;39.60;16.20;100913.00;;;;5057724;28;20253;-46
2022/03/12 07:11:21;;;;;;;3.23;3.00;;;15.20;39.60;16.20;100912.00;;;;5058560;28;20181;-47
2022/03/12 07:13:47;;;;;;;3.27;2.97;;;15.20;39.60;16.20;100911.00;;;;5059686;28;20181;-48
2022/03/12 07:16:13;;;;;;;3.10;2.90;;;15.20;40.20;16.20;100918.00;;;;5055575;28;20640;-47
2022/03/12 07:18:39;;;;;;;3.33;3.03;;;15.20;39.60;16.20;100913.00;;;;5057018;28;20668;-47
2022/03/12 07:21:06;;;;;;;3.20;3.00;;;15.10;39.60;16.20;100915.00;;;;5056925;28;20189;-47
2022/03/12 07:23:32;;;;;;;3.07;2.83;;;15.10;39.60;16.20;100913.00;;;;5056702;28;20170;-47
2022/03/12 07:25:57;;;;;;;3.07;2.87;;;15.10;39.60;16.20;100922.00;;;;5057165;28;20610;-47
2022/03/12 07:28:23;;;;;;;3.00;2.70;;;15.10;39.70;16.20;100918.00;;;;5056025;28;20166;-47
2022/03/12 07:30:49;;;;;;;3.20;2.90;;;15.10;39.70;16.20;100915.00;;;;5056967;28;20201;-47
2022/03/12 07:33:15;;;;;;;3.20;3.00;;;15.10;39.80;16.20;100914.00;;;;5055991;28;20170;-48
2022/03/12 07:35:40;;;;;;;3.00;2.80;;;15.10;39.90;16.20;100919.00;;;;5056357;28;20209;-47
2022/03/12 07:38:06;;;;;;;3.40;3.10;;;15.10;39.90;16.10;100915.00;;;;5056408;28;20178;-46
2022/03/12 07:40:33;;;;;;;3.00;2.80;;;15.10;40.00;16.10;100918.00;;;;5055881;28;20185;-46
2022/03/12 07:42:59;;;;;;;2.83;2.63;;;15.10;40.00;16.20;100921.00;;;;5056028;28;20154;-46
2022/03/12 07:45:24;;;;;;;3.60;2.90;;;15.10;40.30;16.10;100931.00;;;;5057044;28;20190;-47
2022/03/12 07:47:52;;;;;;;5.93;3.10;;;15.10;40.30;16.10;100941.00;;;;5057609;28;20220;-46
2022/03/12 07:50:17;;;;;;;6.47;3.03;;;15.10;40.30;16.20;100926.00;;;;5057652;28;20187;-47
2022/03/12 07:52:43;;;;;;;2.90;2.70;;;15.10;40.30;16.20;100934.00;;;;5058267;28;20179;-45
2022/03/12 07:55:11;;;;;;;3.43;3.13;;;15.10;40.50;16.20;100939.00;;;;5072436;28;20198;-46
2022/03/12 07:57:36;;;;;;;3.20;2.90;;;15.10;40.40;16.20;100925.00;;;;5057398;28;20707;-47
2022/03/12 08:00:06;;;;;;;3.40;3.10;;;15.10;40.30;16.20;100946.00;;;;5056901;28;20167;-46
2022/03/12 08:02:31;;;;;;;3.30;3.00;;;15.10;40.30;16.20;100952.00;;;;5057838;28;20876;-46
2022/03/12 08:04:57;;;;;;;4.20;2.80;;;15.10;40.50;16.20;100940.00;;;;5057453;28;20243;-48
2022/03/12 08:07:24;;;;;;;4.53;3.10;;;15.10;40.70;16.20;100949.00;;;;5056990;28;20175;-46
2022/03/12 08:09:55;;;;;;;3.33;3.13;;;15.10;40.60;16.20;100952.00;;;;5059145;28;20194;-47
2022/03/12 08:12:26;;;;;;;3.70;3.00;;;15.10;40.70;16.20;100952.00;;;;5074649;28;20259;-47
2022/03/12 08:14:52;;;;;;;4.37;3.07;;;15.10;40.70;16.20;100951.00;;;;5075012;28;20202;-48
2022/03/12 08:17:19;;;;;;;4.30;3.10;;;15.10;40.60;16.20;100953.00;;;;5075397;28;20200;-48
2022/03/12 08:19:46;;;;;;;4.60;2.90;;;15.10;40.60;16.20;100964.00;;;;5076209;28;20176;-46
2022/03/12 08:22:11;;;;;;;3.40;3.10;;;15.10;40.50;16.20;100975.00;;;;5076030;28;20209;-48
2022/03/12 08:24:37;;;;;;;3.90;3.20;;;15.10;40.50;16.20;100965.00;;;;5076636;28;20193;-47
2022/03/12 08:27:04;;;;;;;3.40;3.10;;;15.10;40.50;16.20;100975.00;;;;5076179;28;20174;-47
2022/03/12 08:29:30;;;;;;;3.50;3.20;;;15.10;40.50;16.20;100984.00;;;;5074399;28;20174;-47
2022/03/12 08:31:55;;;;;;;4.33;3.00;;;15.10;41.10;16.10;100986.00;;;;5076168;28;20204;-48
2022/03/12 08:34:21;;;;;;;3.50;3.20;;;15.10;40.80;16.20;100994.00;;;;5075884;28;20563;-48
2022/03/12 08:36:47;;;;;;;3.83;3.40;;;15.10;40.90;16.20;100992.00;;;;5075499;28;20170;-47
2022/03/12 08:39:14;;;;;;;4.47;3.20;;;15.10;40.90;16.20;100996.00;;;;5076091;28;20177;-47
2022/03/12 08:41:40;;;;;;;3.50;3.20;;;15.10;41.10;16.20;100999.00;;;;5076607;28;20216;-47
2022/03/12 08:44:06;;;;;;;3.90;3.23;;;15.10;40.90;16.10;100999.00;;;;5075447;28;20595;-47
2022/03/12 08:46:35;;;;;;;4.80;3.47;;;15.10;40.90;16.20;101001.00;;;;5073288;28;20209;-47
2022/03/12 08:49:00;;;;;;;3.33;3.03;;;15.10;40.90;16.10;101008.00;;;;5057040;28;20259;-47
2022/03/12 08:51:26;;;;;;;3.47;3.10;;;15.10;41.00;16.20;100976.00;;;;5056207;28;20744;-47
2022/03/12 08:53:52;;;;;;;3.50;3.10;;;15.00;41.00;16.20;101004.00;;;;5056338;28;20196;-47
2022/03/12 08:56:18;;;;;;;3.67;3.20;;;15.10;41.00;16.20;100983.00;;;;5056734;28;20178;-46
2022/03/12 08:58:44;;;;;;;3.47;3.17;;;15.00;40.90;16.20;101014.00;;;;5056517;28;20185;-47
2022/03/12 09:01:09;;;;;;;3.40;3.10;;;15.10;41.00;16.20;101009.00;;;;5056360;28;20210;-47
2022/03/12 09:03:36;;;;;;;3.60;3.30;;;15.10;41.00;16.20;101003.00;;;;5055508;28;20181;-49
2022/03/12 09:06:03;;;;;;;4.30;3.47;;;15.10;41.20;16.10;101016.00;;;;5055882;28;20189;-47
2022/03/12 09:08:29;;;;;;;4.03;3.00;;;15.10;41.60;16.10;100998.00;;;;5056585;28;20238;-47
2022/03/12 09:10:55;;;;;;;4.70;3.47;;;15.10;41.50;16.10;100998.00;;;;5055100;28;20261;-48
2022/03/12 09:13:22;;;;;;;7.13;3.10;;;15.10;41.80;16.10;101009.00;;;;5054611;28;20178;-47
2022/03/12 09:15:48;;;;;;;3.73;3.10;;;15.10;42.00;16.10;101023.00;;;;5053981;28;20198;-46
2022/03/12 09:18:15;;;;;;;3.47;3.13;;;15.10;42.00;16.20;101027.00;;;;5053961;28;20174;-48
2022/03/12 09:20:47;;;;;;;4.97;3.33;;;15.10;42.00;16.20;101028.00;;;;5053224;28;20187;-48
2022/03/12 09:23:21;;;;;;;4.33;3.37;;;15.10;41.80;16.20;101021.00;;;;5063682;28;20178;-47
2022/03/12 09:25:48;;;;;;;5.43;3.17;;;15.20;41.90;16.20;101042.00;;;;5073300;28;20231;-47
2022/03/12 09:28:14;;;;;;;4.13;3.20;;;15.20;41.90;16.20;101027.00;;;;5074010;28;20223;-48
2022/03/12 09:30:40;;;;;;;4.20;3.47;;;15.20;41.90;16.20;101020.00;;;;5073572;28;20169;-47
2022/03/12 09:33:06;;;;;;;3.77;3.10;;;15.20;41.90;16.20;101038.00;;;;5073231;28;20219;-48
2022/03/12 09:35:32;;;;;;;4.77;3.20;;;15.20;42.10;16.20;101040.00;;;;5072231;28;20186;-56
2022/03/12 09:37:59;;;;;;;3.67;3.30;;;15.10;42.00;16.20;101030.00;;;;5073829;28;20180;-48
2022/03/12 09:40:26;;;;;;;4.00;2.87;;;15.10;42.20;16.20;101035.00;;;;5075076;28;20229;-47
2022/03/12 09:42:52;;;;;;;3.40;3.10;;;15.20;42.30;16.20;101038.00;;;;5077617;28;20193;-48
2022/03/12 09:45:19;;;;;;;4.53;3.20;;;15.20;42.30;16.20;101032.00;;;;5081191;28;20692;-48
2022/03/12 09:47:45;;;;;;;3.40;3.10;;;15.20;42.40;16.30;101041.00;;;;5074060;28;20215;-46
2022/03/12 09:50:11;;;;;;;3.97;3.20;;;15.20;42.50;16.30;101052.00;;;;5073875;28;20166;-48
2022/03/12 09:52:36;;;;;;;3.13;2.83;;;15.20;42.40;16.30;101037.00;;;;5073794;28;20619;-46
2022/03/12 09:55:03;;;;;;;3.87;3.00;;;15.20;42.50;16.30;101034.00;;;;5073709;28;20201;-47
2022/03/12 09:57:28;;;;;;;3.53;2.90;;;15.20;42.40;16.30;101037.00;;;;5073025;28;20184;-46
2022/03/12 09:59:55;;;;;;;3.00;2.80;;;15.20;42.50;16.30;101033.00;;;;5070981;28;20174;-46
2022/03/12 10:02:20;;;;;;;3.20;2.90;;;15.20;42.60;16.30;100997.00;;;;5072097;28;20209;-47
2022/03/12 10:04:46;;;;;;;3.57;3.00;;;15.30;42.60;16.30;101035.00;;;;5071691;28;20568;-47
2022/03/12 10:07:12;;;;;;;3.70;2.90;;;15.30;42.60;16.30;101047.00;;;;5056653;28;20173;-49
2022/03/12 10:09:38;;;;;;;3.43;3.00;;;15.30;42.70;16.30;101038.00;;;;5075359;28;20169;-48
2022/03/12 10:12:05;;;;;;;2.90;2.60;;;15.20;42.80;16.30;101042.00;;;;5072779;28;20182;-46
2022/03/12 10:14:31;;;;;;;6.93;3.10;;;15.20;42.90;16.30;101030.00;;;;5068530;28;20193;-47
2022/03/12 10:17:00;;;;;;;3.10;2.80;;;15.30;43.10;16.30;101035.00;;;;5072591;28;20183;-47
2022/03/12 10:19:27;;;;;;;4.30;3.00;;;15.20;43.00;16.30;101034.00;;;;5072687;28;20172;-47
2022/03/12 10:21:54;;;;;;;4.03;3.00;;;15.30;43.20;16.30;101038.00;;;;5071186;28;20483;-47
2022/03/12 10:24:20;;;;;;;4.73;2.83;;;15.30;43.30;16.30;101033.00;;;;5071932;28;20194;-47
2022/03/12 10:26:46;;;;;;;3.97;2.93;;;15.20;43.30;16.30;101023.00;;;;5070511;28;20173;-46
2022/03/12 10:29:12;;;;;;;3.23;2.80;;;15.30;43.30;16.30;101036.00;;;;5072296;28;20182;-48
2022/03/12 10:31:44;;;;;;;3.17;2.93;;;15.20;43.30;16.30;101033.00;;;;5073491;28;20177;-47
2022/03/12 10:34:23;;;;;;;3.43;3.10;;;15.30;43.40;16.30;101021.00;;;;5074712;28;20170;-48
2022/03/12 10:36:50;;;;;;;4.10;3.10;;;15.30;43.40;16.30;101026.00;;;;5076393;28;20154;-48
2022/03/12 10:39:17;;;;;;;2.97;2.70;;;15.30;43.60;16.30;101018.00;;;;5076878;28;20181;-47
2022/03/12 10:41:42;;;;;;;4.13;2.80;;;15.30;43.50;16.30;101029.00;;;;5077907;28;20750;-47
2022/03/12 10:44:10;;;;;;;3.30;2.90;;;15.30;44.20;16.30;101033.00;;;;5078736;28;20202;-47
2022/03/12 10:46:40;;;;;;;2.67;2.47;;;15.40;43.70;16.30;101023.00;;;;5075666;28;20194;-47